Lynxville, Wisconsin
Current Conditions -  °F | °C
As of 11:55 AM on Thursday 23 Oct 2014 (Local Time) from KPDC Reporting Station
Moderate Rain Moderate Rain  
Wind Chill: 45°   Ceiling: 2000
Heat Index: 47°   Visibility: 4mi
Dew Point: 43°   Wind: 5mph
Humidity: 87%   Direction: 110°ESE
Pressure: 30.08"   Gusts: NA
Location:  43.25°N, 91.06°W
Report Text: KPDC 231655Z AUTO 11004KT 4SM RA OVC020 08/06 A3008 RMK AO2 P0008 T00830063
Loading
Personal Weather Stations






























Interactive Weather Map
Tropical Storm Tracking
New forecast layout! Learn more

10-Day Weather Forecast

Advertisements
Track Severe Weather on mobile